METAR AND TAF INFORMATION
METAR FOR LTAC
ADDS - METARS form results

(2309 UTC 18 October 2018)
Data provider http://aviationweather.gov/metar/data/
 
METAR text: LTAC 182250Z 36001KT 9999 FEW040 11/05 Q1019 NOSIG RMK RWY21L 01002KT RWY03L VRB01KT RWY21R 02002KT
Conditions at: LTAC (ANKARA/ESENBOGA , TR) observed 2250 UTC 18 October 2018
Temperature: 11.0°C (52°F)
Dewpoint: 5.0°C (41°F) [RH = 66%]
Pressure (altimeter): 30.09 inches Hg (1019.0 mb)
Winds: from the N (360 degrees) at 1 MPH (1 knots; 0.5 m/s)
Visibility: 6 or more miles (10+ km)
Ceiling: at least 12,000 feet AGL
Clouds: few clouds at 4000 feet AGL
Weather: no significant weather observed at this time

METAR text: LTAC 182220Z VRB01KT 9999 FEW040 11/06 Q1019 NOSIG RMK RWY21L 00000KT RWY03L 07001KT RWY21R VRB01KT
Conditions at: LTAC (ANKARA/ESENBOGA , TR) observed 2220 UTC 18 October 2018
Temperature: 11.0°C (52°F)
Dewpoint: 6.0°C (43°F) [RH = 71%]
Pressure (altimeter): 30.09 inches Hg (1019.0 mb)
Winds: variable direction winds at 1 MPH (1 knots; 0.5 m/s)
Visibility: 6 or more miles (10+ km)
Ceiling: at least 12,000 feet AGL
Clouds: few clouds at 4000 feet AGL
Weather: no significant weather observed at this time

Forecast for: LTAC (ANKARA/ESENBOGA , TR)
Text: TAF LTAC 182240Z 1900/1924 VRB02KT 9999 SCT035
Forecast period: 0000 UTC 19 October 2018 to 0000 UTC 20 October 2018
Forecast type: FROM: standard forecast or significant change
Winds: variable direction winds at 2 MPH (2 knots; 1.0 m/s)
Visibility: 6 or more miles 10+ km)
Ceiling: at least 12,000 feet AGL
Clouds: scattered clouds at 3500 feet AGL
Weather: no significant weather forecast for this period
Text: TEMPO 1913/1917 34015KT -TSRA FEW025CB BKN030
Forecast period: 1300 to 1700 UTC 19 October 2018
Forecast type: TEMPORARY: The following changes expected for less than half the time period
Winds: from the NNW (340 degrees) at 17 MPH (15 knots; 7.7 m/s)
Visibility: missing
Ceiling: 3000 feet AGL
Clouds: few clouds at 2500 feet AGL
broken clouds at 3000 feet AGL
Weather: -TSRA  (light rain associated with thunderstorm(s))

 AIRPORT MAP

 RUNWAY INFORMATION
Runway 03L Runway length 12303 ft Runway width 148 ft
Runway elevation 3100 ft Runway displaced threshold 1148 ft Runway heading 36
Runway 21R Runway length 12303 ft Runway width 148 ft
Runway elevation 3123 ft Runway displaced threshold 0 ft Runway heading 216
Runway 03R Runway length 12303 ft Runway width 197 ft
Runway elevation 3097 ft Runway displaced threshold 0 ft Runway heading 35
Runway 21L Runway length 12303 ft Runway width 197 ft
Runway elevation 3125 ft Runway displaced threshold 0 ft Runway heading 215

 AIRPORT FREQUENCIES
Type APP Name APP Frequency 119.1 MHZ
Type ATIS Name ATIS Frequency 123.6 MHZ
Type GND Name GND Frequency 121.9 MHZ
Type TWR Name TWR Frequency 118.1 MHZ

 AIRPORT NEAR NAVIGATION AIDS
Type VOR-DME Name Cubuk Frequency 114300 KHZ



Powered by Virtual Airlines Manager [v2.6.1]